sensor_id;sensor_type;location;lat;lon;timestamp;P1;durP1;ratioP1;P2;durP2;ratioP2
26656;SDS011;14279;50.010;8.260;2023-11-19T00:00:05;3.50;;;2.17;;
26656;SDS011;14279;50.010;8.260;2023-11-19T00:02:36;2.33;;;2.20;;
26656;SDS011;14279;50.010;8.260;2023-11-19T00:05:01;2.00;;;1.80;;
26656;SDS011;14279;50.010;8.260;2023-11-19T00:07:26;2.30;;;2.00;;
26656;SDS011;14279;50.010;8.260;2023-11-19T00:09:51;2.63;;;1.97;;
26656;SDS011;14279;50.010;8.260;2023-11-19T00:12:16;4.80;;;1.83;;
26656;SDS011;14279;50.010;8.260;2023-11-19T00:14:42;1.87;;;1.77;;
26656;SDS011;14279;50.010;8.260;2023-11-19T00:17:07;2.13;;;1.80;;
26656;SDS011;14279;50.010;8.260;2023-11-19T00:19:33;3.23;;;1.70;;
26656;SDS011;14279;50.010;8.260;2023-11-19T00:21:58;14.23;;;1.60;;
26656;SDS011;14279;50.010;8.260;2023-11-19T00:24:27;2.03;;;1.83;;
26656;SDS011;14279;50.010;8.260;2023-11-19T00:26:53;3.17;;;1.77;;
26656;SDS011;14279;50.010;8.260;2023-11-19T00:29:18;2.90;;;1.50;;
26656;SDS011;14279;50.010;8.260;2023-11-19T00:31:45;2.37;;;1.50;;
26656;SDS011;14279;50.010;8.260;2023-11-19T00:34:10;1.60;;;1.50;;
26656;SDS011;14279;50.010;8.260;2023-11-19T00:36:36;2.23;;;2.03;;
26656;SDS011;14279;50.010;8.260;2023-11-19T00:39:01;2.07;;;1.93;;
26656;SDS011;14279;50.010;8.260;2023-11-19T00:41:26;3.20;;;2.27;;
26656;SDS011;14279;50.010;8.260;2023-11-19T00:43:52;2.47;;;2.30;;
26656;SDS011;14279;50.010;8.260;2023-11-19T00:46:17;4.00;;;2.40;;
26656;SDS011;14279;50.010;8.260;2023-11-19T00:48:42;2.37;;;2.27;;
26656;SDS011;14279;50.010;8.260;2023-11-19T00:51:07;3.43;;;2.80;;
26656;SDS011;14279;50.010;8.260;2023-11-19T00:53:33;2.37;;;2.27;;
26656;SDS011;14279;50.010;8.260;2023-11-19T00:56:01;3.00;;;2.70;;
26656;SDS011;14279;50.010;8.260;2023-11-19T00:58:26;3.17;;;2.87;;
26656;SDS011;14279;50.010;8.260;2023-11-19T01:00:52;3.17;;;2.87;;
26656;SDS011;14279;50.010;8.260;2023-11-19T01:03:17;2.80;;;2.60;;
26656;SDS011;14279;50.010;8.260;2023-11-19T01:05:42;3.70;;;2.50;;
26656;SDS011;14279;50.010;8.260;2023-11-19T01:08:09;3.70;;;2.80;;
26656;SDS011;14279;50.010;8.260;2023-11-19T01:10:36;3.10;;;2.90;;
26656;SDS011;14279;50.010;8.260;2023-11-19T01:13:01;2.70;;;2.50;;
26656;SDS011;14279;50.010;8.260;2023-11-19T01:15:28;2.67;;;2.50;;
26656;SDS011;14279;50.010;8.260;2023-11-19T01:17:53;3.37;;;3.10;;
26656;SDS011;14279;50.010;8.260;2023-11-19T01:20:18;2.93;;;2.70;;
26656;SDS011;14279;50.010;8.260;2023-11-19T01:22:45;2.63;;;2.43;;
26656;SDS011;14279;50.010;8.260;2023-11-19T01:25:10;2.93;;;2.00;;
26656;SDS011;14279;50.010;8.260;2023-11-19T01:27:35;2.03;;;1.93;;
26656;SDS011;14279;50.010;8.260;2023-11-19T01:30:01;3.67;;;1.67;;
26656;SDS011;14279;50.010;8.260;2023-11-19T01:32:28;1.40;;;1.30;;
26656;SDS011;14279;50.010;8.260;2023-11-19T01:34:54;1.50;;;1.40;;
26656;SDS011;14279;50.010;8.260;2023-11-19T01:37:19;2.40;;;1.40;;
26656;SDS011;14279;50.010;8.260;2023-11-19T01:43:34;1.70;;;1.30;;
26656;SDS011;14279;50.010;8.260;2023-11-19T01:46:37;1.40;;;1.30;;
26656;SDS011;14279;50.010;8.260;2023-11-19T01:49:13;1.60;;;1.50;;
26656;SDS011;14279;50.010;8.260;2023-11-19T01:51:41;1.33;;;1.23;;
26656;SDS011;14279;50.010;8.260;2023-11-19T01:54:08;1.60;;;1.30;;
26656;SDS011;14279;50.010;8.260;2023-11-19T01:56:34;1.60;;;1.47;;
26656;SDS011;14279;50.010;8.260;2023-11-19T01:59:05;2.93;;;1.43;;
26656;SDS011;14279;50.010;8.260;2023-11-19T02:02:10;2.23;;;1.13;;
26656;SDS011;14279;50.010;8.260;2023-11-19T02:04:41;2.03;;;1.20;;
26656;SDS011;14279;50.010;8.260;2023-11-19T02:07:15;1.40;;;1.30;;
26656;SDS011;14279;50.010;8.260;2023-11-19T02:10:39;1.13;;;1.10;;
26656;SDS011;14279;50.010;8.260;2023-11-19T02:13:06;1.30;;;1.30;;
26656;SDS011;14279;50.010;8.260;2023-11-19T02:15:32;1.60;;;1.50;;
26656;SDS011;14279;50.010;8.260;2023-11-19T02:18:15;1.50;;;1.40;;
26656;SDS011;14279;50.010;8.260;2023-11-19T02:20:42;1.40;;;1.30;;
26656;SDS011;14279;50.010;8.260;2023-11-19T02:23:08;2.50;;;1.33;;
26656;SDS011;14279;50.010;8.260;2023-11-19T02:25:33;1.57;;;1.17;;
26656;SDS011;14279;50.010;8.260;2023-11-19T02:28:00;4.90;;;1.70;;
26656;SDS011;14279;50.010;8.260;2023-11-19T02:30:27;1.87;;;1.40;;
26656;SDS011;14279;50.010;8.260;2023-11-19T02:32:54;3.20;;;1.83;;
26656;SDS011;14279;50.010;8.260;2023-11-19T02:35:23;3.07;;;1.63;;
26656;SDS011;14279;50.010;8.260;2023-11-19T02:37:52;1.53;;;1.43;;
26656;SDS011;14279;50.010;8.260;2023-11-19T02:40:19;1.67;;;1.57;;
26656;SDS011;14279;50.010;8.260;2023-11-19T02:42:45;3.30;;;1.80;;
26656;SDS011;14279;50.010;8.260;2023-11-19T02:45:10;4.00;;;2.10;;
26656;SDS011;14279;50.010;8.260;2023-11-19T02:47:42;6.90;;;3.13;;
26656;SDS011;14279;50.010;8.260;2023-11-19T02:50:09;7.77;;;3.23;;
26656;SDS011;14279;50.010;8.260;2023-11-19T02:52:42;4.23;;;2.80;;
26656;SDS011;14279;50.010;8.260;2023-11-19T02:55:09;6.97;;;4.50;;
26656;SDS011;14279;50.010;8.260;2023-11-19T02:57:38;5.27;;;4.33;;
26656;SDS011;14279;50.010;8.260;2023-11-19T03:00:13;5.33;;;4.30;;
26656;SDS011;14279;50.010;8.260;2023-11-19T03:02:48;5.20;;;4.70;;
26656;SDS011;14279;50.010;8.260;2023-11-19T03:05:23;8.53;;;4.90;;
26656;SDS011;14279;50.010;8.260;2023-11-19T03:07:49;8.27;;;5.00;;
26656;SDS011;14279;50.010;8.260;2023-11-19T03:10:15;6.37;;;4.50;;
26656;SDS011;14279;50.010;8.260;2023-11-19T03:12:40;4.67;;;4.10;;
26656;SDS011;14279;50.010;8.260;2023-11-19T03:15:06;8.47;;;4.57;;
26656;SDS011;14279;50.010;8.260;2023-11-19T03:17:34;5.60;;;5.00;;
26656;SDS011;14279;50.010;8.260;2023-11-19T03:20:00;5.10;;;4.60;;
26656;SDS011;14279;50.010;8.260;2023-11-19T03:22:26;6.37;;;5.60;;
26656;SDS011;14279;50.010;8.260;2023-11-19T03:24:51;9.90;;;5.70;;
26656;SDS011;14279;50.010;8.260;2023-11-19T03:27:16;9.40;;;6.07;;
26656;SDS011;14279;50.010;8.260;2023-11-19T03:29:52;6.13;;;5.60;;
26656;SDS011;14279;50.010;8.260;2023-11-19T03:32:18;10.03;;;6.87;;
26656;SDS011;14279;50.010;8.260;2023-11-19T03:34:45;9.57;;;7.07;;
26656;SDS011;14279;50.010;8.260;2023-11-19T03:37:10;9.50;;;6.10;;
26656;SDS011;14279;50.010;8.260;2023-11-19T03:39:35;8.73;;;6.40;;
26656;SDS011;14279;50.010;8.260;2023-11-19T03:42:02;8.97;;;6.50;;
26656;SDS011;14279;50.010;8.260;2023-11-19T03:44:28;9.20;;;6.30;;
26656;SDS011;14279;50.010;8.260;2023-11-19T03:46:53;9.77;;;7.30;;
26656;SDS011;14279;50.010;8.260;2023-11-19T03:49:19;7.70;;;6.90;;
26656;SDS011;14279;50.010;8.260;2023-11-19T03:51:44;9.07;;;7.07;;
26656;SDS011;14279;50.010;8.260;2023-11-19T03:54:09;10.60;;;6.63;;
26656;SDS011;14279;50.010;8.260;2023-11-19T03:56:36;10.80;;;7.43;;
26656;SDS011;14279;50.010;8.260;2023-11-19T03:59:02;9.77;;;6.90;;
26656;SDS011;14279;50.010;8.260;2023-11-19T04:01:27;12.07;;;7.70;;
26656;SDS011;14279;50.010;8.260;2023-11-19T04:03:53;10.33;;;7.90;;
26656;SDS011;14279;50.010;8.260;2023-11-19T04:06:18;12.13;;;8.00;;
26656;SDS011;14279;50.010;8.260;2023-11-19T04:08:43;9.27;;;7.30;;
26656;SDS011;14279;50.010;8.260;2023-11-19T04:11:09;11.10;;;7.70;;
26656;SDS011;14279;50.010;8.260;2023-11-19T04:13:34;9.53;;;7.13;;
26656;SDS011;14279;50.010;8.260;2023-11-19T04:16:00;13.87;;;9.03;;
26656;SDS011;14279;50.010;8.260;2023-11-19T04:18:26;12.27;;;8.30;;
26656;SDS011;14279;50.010;8.260;2023-11-19T04:20:55;12.67;;;7.50;;
26656;SDS011;14279;50.010;8.260;2023-11-19T04:23:21;12.17;;;7.20;;
26656;SDS011;14279;50.010;8.260;2023-11-19T04:25:46;9.90;;;7.40;;
26656;SDS011;14279;50.010;8.260;2023-11-19T04:28:11;24.03;;;7.20;;
26656;SDS011;14279;50.010;8.260;2023-11-19T04:30:37;14.67;;;6.97;;
26656;SDS011;14279;50.010;8.260;2023-11-19T04:33:02;27.77;;;7.67;;
26656;SDS011;14279;50.010;8.260;2023-11-19T04:35:28;10.93;;;7.27;;
26656;SDS011;14279;50.010;8.260;2023-11-19T04:37:53;15.03;;;8.20;;
26656;SDS011;14279;50.010;8.260;2023-11-19T04:40:18;12.13;;;8.10;;
26656;SDS011;14279;50.010;8.260;2023-11-19T04:42:43;11.50;;;7.40;;
26656;SDS011;14279;50.010;8.260;2023-11-19T04:45:09;16.50;;;7.43;;
26656;SDS011;14279;50.010;8.260;2023-11-19T04:47:35;13.13;;;7.67;;
26656;SDS011;14279;50.010;8.260;2023-11-19T04:50:01;10.50;;;7.30;;
26656;SDS011;14279;50.010;8.260;2023-11-19T04:52:27;13.00;;;6.27;;
26656;SDS011;14279;50.010;8.260;2023-11-19T04:54:52;15.53;;;7.57;;
26656;SDS011;14279;50.010;8.260;2023-11-19T04:57:18;11.20;;;7.23;;
26656;SDS011;14279;50.010;8.260;2023-11-19T04:59:43;19.70;;;8.43;;
26656;SDS011;14279;50.010;8.260;2023-11-19T05:02:08;12.93;;;7.87;;
26656;SDS011;14279;50.010;8.260;2023-11-19T05:04:34;19.37;;;8.47;;
26656;SDS011;14279;50.010;8.260;2023-11-19T05:07:00;23.37;;;7.63;;
26656;SDS011;14279;50.010;8.260;2023-11-19T05:09:31;14.30;;;7.80;;
26656;SDS011;14279;50.010;8.260;2023-11-19T05:11:56;13.13;;;7.93;;
26656;SDS011;14279;50.010;8.260;2023-11-19T05:14:21;11.60;;;8.20;;
26656;SDS011;14279;50.010;8.260;2023-11-19T05:16:47;19.83;;;8.23;;
26656;SDS011;14279;50.010;8.260;2023-11-19T05:19:12;12.17;;;8.20;;
26656;SDS011;14279;50.010;8.260;2023-11-19T05:21:41;12.37;;;8.33;;
26656;SDS011;14279;50.010;8.260;2023-11-19T05:24:07;20.70;;;8.50;;
26656;SDS011;14279;50.010;8.260;2023-11-19T05:26:32;14.40;;;9.30;;
26656;SDS011;14279;50.010;8.260;2023-11-19T05:28:57;18.40;;;10.50;;
26656;SDS011;14279;50.010;8.260;2023-11-19T05:31:23;19.40;;;9.80;;
26656;SDS011;14279;50.010;8.260;2023-11-19T05:33:48;14.40;;;9.00;;
26656;SDS011;14279;50.010;8.260;2023-11-19T05:36:13;23.70;;;9.97;;
26656;SDS011;14279;50.010;8.260;2023-11-19T05:38:40;19.60;;;9.40;;
26656;SDS011;14279;50.010;8.260;2023-11-19T05:41:05;15.90;;;8.37;;
26656;SDS011;14279;50.010;8.260;2023-11-19T05:43:34;16.60;;;8.67;;
26656;SDS011;14279;50.010;8.260;2023-11-19T05:45:59;14.47;;;8.87;;
26656;SDS011;14279;50.010;8.260;2023-11-19T05:48:25;18.83;;;10.27;;
26656;SDS011;14279;50.010;8.260;2023-11-19T05:50:51;15.17;;;8.33;;
26656;SDS011;14279;50.010;8.260;2023-11-19T05:53:17;14.23;;;8.50;;
26656;SDS011;14279;50.010;8.260;2023-11-19T05:55:42;16.60;;;9.37;;
26656;SDS011;14279;50.010;8.260;2023-11-19T05:58:19;21.00;;;8.80;;
26656;SDS011;14279;50.010;8.260;2023-11-19T06:00:48;13.80;;;8.10;;
26656;SDS011;14279;50.010;8.260;2023-11-19T06:03:15;12.10;;;8.93;;
26656;SDS011;14279;50.010;8.260;2023-11-19T06:05:41;14.80;;;9.93;;
26656;SDS011;14279;50.010;8.260;2023-11-19T06:08:09;17.00;;;9.50;;
26656;SDS011;14279;50.010;8.260;2023-11-19T06:10:35;16.63;;;9.60;;
26656;SDS011;14279;50.010;8.260;2023-11-19T06:13:00;12.20;;;8.60;;
26656;SDS011;14279;50.010;8.260;2023-11-19T06:16:05;11.00;;;8.60;;
26656;SDS011;14279;50.010;8.260;2023-11-19T06:18:30;17.17;;;9.00;;
26656;SDS011;14279;50.010;8.260;2023-11-19T06:20:56;17.23;;;9.03;;
26656;SDS011;14279;50.010;8.260;2023-11-19T06:23:21;11.50;;;8.00;;
26656;SDS011;14279;50.010;8.260;2023-11-19T06:25:47;14.80;;;10.10;;
26656;SDS011;14279;50.010;8.260;2023-11-19T06:28:12;13.83;;;10.60;;
26656;SDS011;14279;50.010;8.260;2023-11-19T06:30:38;20.47;;;11.37;;
26656;SDS011;14279;50.010;8.260;2023-11-19T06:33:04;19.90;;;12.20;;
26656;SDS011;14279;50.010;8.260;2023-11-19T06:35:29;15.23;;;11.20;;
26656;SDS011;14279;50.010;8.260;2023-11-19T06:38:01;20.57;;;10.60;;
26656;SDS011;14279;50.010;8.260;2023-11-19T06:40:29;21.87;;;10.43;;
26656;SDS011;14279;50.010;8.260;2023-11-19T06:42:55;18.63;;;10.07;;
26656;SDS011;14279;50.010;8.260;2023-11-19T06:45:20;17.67;;;10.03;;
26656;SDS011;14279;50.010;8.260;2023-11-19T06:47:47;14.57;;;10.97;;
26656;SDS011;14279;50.010;8.260;2023-11-19T06:50:13;15.77;;;9.97;;
26656;SDS011;14279;50.010;8.260;2023-11-19T06:52:40;18.43;;;12.00;;
26656;SDS011;14279;50.010;8.260;2023-11-19T06:55:05;14.30;;;10.90;;
26656;SDS011;14279;50.010;8.260;2023-11-19T06:57:31;13.57;;;10.20;;
26656;SDS011;14279;50.010;8.260;2023-11-19T07:03:04;15.43;;;10.90;;
26656;SDS011;14279;50.010;8.260;2023-11-19T07:05:35;19.10;;;10.90;;
26656;SDS011;14279;50.010;8.260;2023-11-19T07:36:42;15.13;;;11.20;;
26656;SDS011;14279;50.010;8.260;2023-11-19T07:39:24;18.20;;;11.13;;
26656;SDS011;14279;50.010;8.260;2023-11-19T07:42:24;18.53;;;10.77;;
26656;SDS011;14279;50.010;8.260;2023-11-19T07:45:16;13.67;;;11.07;;
26656;SDS011;14279;50.010;8.260;2023-11-19T07:47:42;23.80;;;13.57;;
26656;SDS011;14279;50.010;8.260;2023-11-19T07:50:11;18.90;;;12.17;;
26656;SDS011;14279;50.010;8.260;2023-11-19T07:52:39;15.67;;;11.40;;
26656;SDS011;14279;50.010;8.260;2023-11-19T07:55:04;19.90;;;12.33;;
26656;SDS011;14279;50.010;8.260;2023-11-19T07:57:30;20.73;;;11.10;;
26656;SDS011;14279;50.010;8.260;2023-11-19T07:59:56;19.37;;;11.87;;
26656;SDS011;14279;50.010;8.260;2023-11-19T08:02:22;17.57;;;11.20;;
26656;SDS011;14279;50.010;8.260;2023-11-19T08:04:48;17.77;;;12.63;;
26656;SDS011;14279;50.010;8.260;2023-11-19T08:07:16;17.70;;;11.73;;
26656;SDS011;14279;50.010;8.260;2023-11-19T08:09:42;17.63;;;11.37;;
26656;SDS011;14279;50.010;8.260;2023-11-19T08:12:08;23.30;;;11.93;;
26656;SDS011;14279;50.010;8.260;2023-11-19T08:14:33;17.40;;;11.73;;
26656;SDS011;14279;50.010;8.260;2023-11-19T08:16:59;16.40;;;12.23;;
26656;SDS011;14279;50.010;8.260;2023-11-19T08:19:24;20.93;;;12.00;;
26656;SDS011;14279;50.010;8.260;2023-11-19T08:21:49;15.33;;;11.30;;
26656;SDS011;14279;50.010;8.260;2023-11-19T08:24:15;17.17;;;11.50;;
26656;SDS011;14279;50.010;8.260;2023-11-19T08:26:40;15.63;;;11.80;;
26656;SDS011;14279;50.010;8.260;2023-11-19T08:29:06;19.40;;;12.00;;
26656;SDS011;14279;50.010;8.260;2023-11-19T08:31:31;16.70;;;10.83;;
26656;SDS011;14279;50.010;8.260;2023-11-19T08:33:57;19.40;;;12.27;;
26656;SDS011;14279;50.010;8.260;2023-11-19T08:36:22;17.33;;;11.00;;
26656;SDS011;14279;50.010;8.260;2023-11-19T08:38:48;16.90;;;11.97;;
26656;SDS011;14279;50.010;8.260;2023-11-19T08:41:54;16.53;;;11.30;;
26656;SDS011;14279;50.010;8.260;2023-11-19T08:44:20;16.57;;;10.10;;
26656;SDS011;14279;50.010;8.260;2023-11-19T08:46:49;17.57;;;10.37;;
26656;SDS011;14279;50.010;8.260;2023-11-19T08:49:15;18.87;;;11.30;;
26656;SDS011;14279;50.010;8.260;2023-11-19T08:51:41;16.63;;;11.40;;
26656;SDS011;14279;50.010;8.260;2023-11-19T08:54:07;20.53;;;11.17;;
26656;SDS011;14279;50.010;8.260;2023-11-19T08:56:50;15.87;;;10.63;;
26656;SDS011;14279;50.010;8.260;2023-11-19T08:59:16;19.60;;;9.90;;
26656;SDS011;14279;50.010;8.260;2023-11-19T09:01:41;14.93;;;11.67;;
26656;SDS011;14279;50.010;8.260;2023-11-19T09:04:07;8.67;;;6.57;;
26656;SDS011;14279;50.010;8.260;2023-11-19T09:06:33;10.00;;;5.60;;
26656;SDS011;14279;50.010;8.260;2023-11-19T09:09:00;9.13;;;4.50;;
26656;SDS011;14279;50.010;8.260;2023-11-19T09:11:30;11.57;;;5.20;;
26656;SDS011;14279;50.010;8.260;2023-11-19T09:13:56;4.93;;;3.20;;
26656;SDS011;14279;50.010;8.260;2023-11-19T09:27:39;7.27;;;2.03;;
26656;SDS011;14279;50.010;8.260;2023-11-19T09:30:04;10.87;;;2.43;;
26656;SDS011;14279;50.010;8.260;2023-11-19T09:32:31;8.33;;;1.97;;
26656;SDS011;14279;50.010;8.260;2023-11-19T09:34:56;8.53;;;2.13;;
26656;SDS011;14279;50.010;8.260;2023-11-19T09:37:22;6.00;;;1.70;;
26656;SDS011;14279;50.010;8.260;2023-11-19T09:39:47;7.20;;;2.13;;
26656;SDS011;14279;50.010;8.260;2023-11-19T09:42:12;5.20;;;1.80;;
26656;SDS011;14279;50.010;8.260;2023-11-19T09:44:38;8.17;;;2.03;;
26656;SDS011;14279;50.010;8.260;2023-11-19T09:49:59;6.17;;;1.80;;
26656;SDS011;14279;50.010;8.260;2023-11-19T09:52:24;5.60;;;2.37;;
26656;SDS011;14279;50.010;8.260;2023-11-19T09:54:50;15.43;;;2.47;;
26656;SDS011;14279;50.010;8.260;2023-11-19T09:57:15;6.70;;;2.17;;
26656;SDS011;14279;50.010;8.260;2023-11-19T09:59:42;11.83;;;2.20;;
26656;SDS011;14279;50.010;8.260;2023-11-19T10:02:09;5.70;;;1.97;;
26656;SDS011;14279;50.010;8.260;2023-11-19T10:04:37;9.63;;;2.23;;
26656;SDS011;14279;50.010;8.260;2023-11-19T10:07:03;11.57;;;2.53;;
26656;SDS011;14279;50.010;8.260;2023-11-19T10:09:29;9.10;;;2.60;;
26656;SDS011;14279;50.010;8.260;2023-11-19T10:11:54;13.63;;;2.23;;
26656;SDS011;14279;50.010;8.260;2023-11-19T10:14:20;11.77;;;3.17;;
26656;SDS011;14279;50.010;8.260;2023-11-19T10:16:48;9.50;;;2.20;;
26656;SDS011;14279;50.010;8.260;2023-11-19T10:19:18;11.17;;;2.20;;
26656;SDS011;14279;50.010;8.260;2023-11-19T10:21:45;9.70;;;2.30;;
26656;SDS011;14279;50.010;8.260;2023-11-19T10:24:11;13.60;;;2.33;;
26656;SDS011;14279;50.010;8.260;2023-11-19T10:26:36;8.70;;;2.33;;
26656;SDS011;14279;50.010;8.260;2023-11-19T10:29:02;8.47;;;1.90;;
26656;SDS011;14279;50.010;8.260;2023-11-19T10:31:27;6.97;;;2.07;;
26656;SDS011;14279;50.010;8.260;2023-11-19T10:33:53;15.47;;;2.93;;
26656;SDS011;14279;50.010;8.260;2023-11-19T10:36:19;15.47;;;2.83;;
26656;SDS011;14279;50.010;8.260;2023-11-19T10:38:54;8.20;;;2.43;;
26656;SDS011;14279;50.010;8.260;2023-11-19T10:41:29;7.83;;;2.30;;
26656;SDS011;14279;50.010;8.260;2023-11-19T10:43:55;7.63;;;2.30;;
26656;SDS011;14279;50.010;8.260;2023-11-19T10:46:21;9.07;;;2.57;;
26656;SDS011;14279;50.010;8.260;2023-11-19T10:48:52;13.83;;;2.60;;
26656;SDS011;14279;50.010;8.260;2023-11-19T10:51:20;13.00;;;3.10;;
26656;SDS011;14279;50.010;8.260;2023-11-19T10:53:47;8.10;;;2.67;;
26656;SDS011;14279;50.010;8.260;2023-11-19T10:56:15;12.63;;;2.80;;
26656;SDS011;14279;50.010;8.260;2023-11-19T10:58:44;13.30;;;2.80;;
26656;SDS011;14279;50.010;8.260;2023-11-19T11:01:18;6.70;;;2.17;;
26656;SDS011;14279;50.010;8.260;2023-11-19T11:03:48;8.10;;;1.87;;
26656;SDS011;14279;50.010;8.260;2023-11-19T11:06:16;6.67;;;2.50;;
26656;SDS011;14279;50.010;8.260;2023-11-19T11:08:43;12.57;;;2.50;;
26656;SDS011;14279;50.010;8.260;2023-11-19T11:11:11;11.17;;;2.10;;
26656;SDS011;14279;50.010;8.260;2023-11-19T11:13:41;9.80;;;2.10;;
26656;SDS011;14279;50.010;8.260;2023-11-19T11:16:07;14.70;;;2.43;;
26656;SDS011;14279;50.010;8.260;2023-11-19T11:18:33;15.17;;;2.67;;
26656;SDS011;14279;50.010;8.260;2023-11-19T11:21:05;9.10;;;2.90;;
26656;SDS011;14279;50.010;8.260;2023-11-19T11:37:34;12.00;;;2.27;;
26656;SDS011;14279;50.010;8.260;2023-11-19T11:40:04;10.33;;;2.30;;
26656;SDS011;14279;50.010;8.260;2023-11-19T11:42:38;14.17;;;2.93;;
26656;SDS011;14279;50.010;8.260;2023-11-19T11:45:10;15.30;;;2.60;;
26656;SDS011;14279;50.010;8.260;2023-11-19T11:50:16;13.47;;;2.63;;
26656;SDS011;14279;50.010;8.260;2023-11-19T11:55:27;10.70;;;2.67;;
26656;SDS011;14279;50.010;8.260;2023-11-19T11:57:53;8.30;;;2.17;;
26656;SDS011;14279;50.010;8.260;2023-11-19T12:00:21;12.70;;;2.57;;
26656;SDS011;14279;50.010;8.260;2023-11-19T12:02:51;11.73;;;2.57;;
26656;SDS011;14279;50.010;8.260;2023-11-19T12:05:16;9.60;;;2.20;;
26656;SDS011;14279;50.010;8.260;2023-11-19T12:07:44;10.60;;;2.30;;
26656;SDS011;14279;50.010;8.260;2023-11-19T12:10:28;8.87;;;2.37;;
26656;SDS011;14279;50.010;8.260;2023-11-19T12:12:59;15.20;;;3.30;;
26656;SDS011;14279;50.010;8.260;2023-11-19T12:15:25;7.50;;;2.50;;
26656;SDS011;14279;50.010;8.260;2023-11-19T12:17:52;10.83;;;2.87;;
26656;SDS011;14279;50.010;8.260;2023-11-19T12:20:20;9.60;;;2.80;;
26656;SDS011;14279;50.010;8.260;2023-11-19T12:22:47;7.07;;;2.53;;
26656;SDS011;14279;50.010;8.260;2023-11-19T12:25:14;10.00;;;2.57;;
26656;SDS011;14279;50.010;8.260;2023-11-19T12:27:48;6.57;;;2.33;;
26656;SDS011;14279;50.010;8.260;2023-11-19T12:30:18;9.23;;;2.57;;
26656;SDS011;14279;50.010;8.260;2023-11-19T12:32:47;9.90;;;2.53;;
26656;SDS011;14279;50.010;8.260;2023-11-19T12:35:13;12.47;;;2.43;;
26656;SDS011;14279;50.010;8.260;2023-11-19T12:37:39;15.40;;;3.20;;
26656;SDS011;14279;50.010;8.260;2023-11-19T12:40:12;10.73;;;2.00;;
26656;SDS011;14279;50.010;8.260;2023-11-19T12:42:47;12.20;;;2.23;;
26656;SDS011;14279;50.010;8.260;2023-11-19T12:45:13;7.77;;;2.30;;
26656;SDS011;14279;50.010;8.260;2023-11-19T12:47:39;19.30;;;2.57;;
26656;SDS011;14279;50.010;8.260;2023-11-19T12:50:08;10.90;;;1.90;;
26656;SDS011;14279;50.010;8.260;2023-11-19T12:52:35;12.87;;;2.60;;
26656;SDS011;14279;50.010;8.260;2023-11-19T12:55:02;10.97;;;2.50;;
26656;SDS011;14279;50.010;8.260;2023-11-19T12:57:48;9.70;;;2.30;;
26656;SDS011;14279;50.010;8.260;2023-11-19T13:00:23;11.87;;;2.40;;
26656;SDS011;14279;50.010;8.260;2023-11-19T13:02:52;6.80;;;2.03;;
26656;SDS011;14279;50.010;8.260;2023-11-19T13:05:25;7.63;;;2.43;;
26656;SDS011;14279;50.010;8.260;2023-11-19T13:08:10;10.07;;;1.80;;
26656;SDS011;14279;50.010;8.260;2023-11-19T13:13:16;8.60;;;2.17;;
26656;SDS011;14279;50.010;8.260;2023-11-19T13:15:41;9.57;;;2.27;;
26656;SDS011;14279;50.010;8.260;2023-11-19T13:18:06;9.93;;;2.10;;
26656;SDS011;14279;50.010;8.260;2023-11-19T13:20:32;10.00;;;2.50;;
26656;SDS011;14279;50.010;8.260;2023-11-19T13:22:58;7.80;;;2.37;;
26656;SDS011;14279;50.010;8.260;2023-11-19T13:25:28;11.50;;;3.23;;
26656;SDS011;14279;50.010;8.260;2023-11-19T13:27:55;11.60;;;2.60;;
26656;SDS011;14279;50.010;8.260;2023-11-19T13:30:21;8.73;;;2.67;;
26656;SDS011;14279;50.010;8.260;2023-11-19T13:32:48;13.30;;;2.60;;
26656;SDS011;14279;50.010;8.260;2023-11-19T13:35:13;14.27;;;2.70;;
26656;SDS011;14279;50.010;8.260;2023-11-19T13:37:39;15.53;;;2.43;;
26656;SDS011;14279;50.010;8.260;2023-11-19T13:40:05;8.83;;;2.80;;
26656;SDS011;14279;50.010;8.260;2023-11-19T13:42:31;14.30;;;2.70;;
26656;SDS011;14279;50.010;8.260;2023-11-19T13:44:57;11.93;;;2.63;;
26656;SDS011;14279;50.010;8.260;2023-11-19T13:47:22;14.53;;;2.60;;
26656;SDS011;14279;50.010;8.260;2023-11-19T13:49:48;10.47;;;2.80;;
26656;SDS011;14279;50.010;8.260;2023-11-19T13:52:14;13.10;;;3.20;;
26656;SDS011;14279;50.010;8.260;2023-11-19T13:54:39;7.70;;;3.20;;
26656;SDS011;14279;50.010;8.260;2023-11-19T13:57:06;11.63;;;2.63;;
26656;SDS011;14279;50.010;8.260;2023-11-19T13:59:31;16.50;;;2.93;;
26656;SDS011;14279;50.010;8.260;2023-11-19T14:01:57;19.93;;;3.10;;
26656;SDS011;14279;50.010;8.260;2023-11-19T14:04:23;13.93;;;3.50;;
26656;SDS011;14279;50.010;8.260;2023-11-19T14:06:48;13.83;;;2.80;;
26656;SDS011;14279;50.010;8.260;2023-11-19T14:09:14;8.73;;;2.40;;
26656;SDS011;14279;50.010;8.260;2023-11-19T14:11:40;18.83;;;2.93;;
26656;SDS011;14279;50.010;8.260;2023-11-19T14:14:05;6.10;;;2.40;;
26656;SDS011;14279;50.010;8.260;2023-11-19T14:16:31;14.10;;;3.00;;
26656;SDS011;14279;50.010;8.260;2023-11-19T14:18:57;13.83;;;2.60;;
26656;SDS011;14279;50.010;8.260;2023-11-19T14:21:22;10.37;;;3.60;;
26656;SDS011;14279;50.010;8.260;2023-11-19T14:23:48;13.70;;;2.50;;
26656;SDS011;14279;50.010;8.260;2023-11-19T14:26:13;16.50;;;3.20;;
26656;SDS011;14279;50.010;8.260;2023-11-19T14:28:38;11.10;;;3.00;;
26656;SDS011;14279;50.010;8.260;2023-11-19T14:31:04;13.07;;;2.70;;
26656;SDS011;14279;50.010;8.260;2023-11-19T14:33:29;17.67;;;3.43;;
26656;SDS011;14279;50.010;8.260;2023-11-19T14:35:55;16.80;;;2.83;;
26656;SDS011;14279;50.010;8.260;2023-11-19T14:38:20;14.47;;;2.70;;
26656;SDS011;14279;50.010;8.260;2023-11-19T14:40:46;14.87;;;2.60;;
26656;SDS011;14279;50.010;8.260;2023-11-19T14:43:12;9.27;;;2.90;;
26656;SDS011;14279;50.010;8.260;2023-11-19T14:45:40;11.53;;;3.13;;
26656;SDS011;14279;50.010;8.260;2023-11-19T14:48:05;9.87;;;2.30;;
26656;SDS011;14279;50.010;8.260;2023-11-19T14:50:32;7.37;;;2.53;;
26656;SDS011;14279;50.010;8.260;2023-11-19T14:52:57;10.53;;;2.57;;
26656;SDS011;14279;50.010;8.260;2023-11-19T14:55:23;9.23;;;2.70;;
26656;SDS011;14279;50.010;8.260;2023-11-19T14:57:48;8.27;;;2.70;;
26656;SDS011;14279;50.010;8.260;2023-11-19T15:00:15;13.77;;;3.13;;
26656;SDS011;14279;50.010;8.260;2023-11-19T15:02:41;12.50;;;2.77;;
26656;SDS011;14279;50.010;8.260;2023-11-19T15:05:07;16.30;;;3.40;;
26656;SDS011;14279;50.010;8.260;2023-11-19T15:07:36;13.40;;;2.60;;
26656;SDS011;14279;50.010;8.260;2023-11-19T15:10:02;13.07;;;3.13;;
26656;SDS011;14279;50.010;8.260;2023-11-19T15:12:28;11.60;;;2.53;;
26656;SDS011;14279;50.010;8.260;2023-11-19T15:14:53;14.97;;;2.80;;
26656;SDS011;14279;50.010;8.260;2023-11-19T15:17:20;15.50;;;2.97;;
26656;SDS011;14279;50.010;8.260;2023-11-19T15:19:46;12.57;;;3.23;;
26656;SDS011;14279;50.010;8.260;2023-11-19T15:22:12;9.07;;;2.43;;
26656;SDS011;14279;50.010;8.260;2023-11-19T15:24:38;15.23;;;3.50;;
26656;SDS011;14279;50.010;8.260;2023-11-19T15:27:06;16.47;;;3.93;;
26656;SDS011;14279;50.010;8.260;2023-11-19T15:29:32;14.70;;;2.87;;
26656;SDS011;14279;50.010;8.260;2023-11-19T15:31:59;9.70;;;2.70;;
26656;SDS011;14279;50.010;8.260;2023-11-19T15:34:24;10.23;;;2.77;;
26656;SDS011;14279;50.010;8.260;2023-11-19T15:36:50;11.23;;;2.77;;
26656;SDS011;14279;50.010;8.260;2023-11-19T15:39:15;19.83;;;2.80;;
26656;SDS011;14279;50.010;8.260;2023-11-19T15:41:41;8.63;;;2.50;;
26656;SDS011;14279;50.010;8.260;2023-11-19T15:44:06;8.93;;;2.97;;
26656;SDS011;14279;50.010;8.260;2023-11-19T15:46:34;8.63;;;3.10;;
26656;SDS011;14279;50.010;8.260;2023-11-19T15:49:07;14.17;;;3.30;;
26656;SDS011;14279;50.010;8.260;2023-11-19T15:51:35;11.33;;;2.80;;